Tiempo atmosférico en la estación meteorológica de Salobreña, Granada (20 m.)



Fecha
DESCASC
Temp. máxima en grados centígrados (hora)
DESCASC
Temp. mínima en grados centígrados (hora)
DESCASC
Temp. media en grados centígrados
DESCASC
Racha de viento máxima en m/sg (hora)
DESCASC
Velocidad máxima media en intervalos de 10 minutos(hora)
DESCASC
Precipitaciones diarias en mm
DESCASC
Precipitaciones de 00:00 a 06:00 en mm
DESCASC
Precipitaciones de 06:00 a 12:00 en mm
DESCASC
Precipitaciones de 12:00 a 18:00 en mm
DESCASC
Precipitaciones de 18:00 a 24:00 en mm
DESCASC
18-10-2018 17.9 (11:30) 12.5 (23:59) 15.2 16.67 (11:30) 6.11 (11:40) 31.8 0 16 15.8 0
17-10-2018 23.4 (11:50) 14.4 (08:40) 18.9 7.5 (14:30) 3.61 (14:30) 0 0 0 0 0
16-10-2018 22.1 (13:20) 15.2 (08:30) 18.7 6.11 (13:30) 4.17 (13:30) 11.6 11.6 0 0 0
15-10-2018 22.9 (14:50) 16.1 (05:40) 19.5 13.06 (15:20) 6.11 (06:40) 7.6 0 0 0 7.6
14-10-2018 24.6 (16:20) 17.6 (00:00) 21.1 15 (12:30) 6.67 (12:20) 10.2 0 2 8.2 0
13-10-2018 26.2 (14:50) 16.8 (00:00) 21.5 7.5 (14:20) 4.17 (13:30) 0 0 0 0 0
12-10-2018 26 (15:00) 16.2 (00:00) 21.1 7.22 (16:20) 3.61 (16:00) 0 0 0 0 0
11-10-2018 24.1 (17:10) 18.4 (23:59) 21.3 6.11 (18:50) 3.06 (22:00) 1.2 0 0.4 0.8 0
10-10-2018 25.7 (14:30) 17.5 (00:00) 21.6 6.67 (15:50) 4.44 (14:30) 0 0 0 0 0
09-10-2018 25.3 (13:50) 19.6 (06:50) 22.4 15.28 (04:10) 4.44 (13:10) 0.4 0 0 0.4 0
08-10-2018 25.9 (12:40) 18.2 (06:50) 22.1 7.22 (13:30) 4.72 (14:00) 0 0 0 0 0
07-10-2018 29.3 (17:30) 15.5 (08:20) 22.4 8.61 (14:20) 4.17 (14:20) 0 0 0 0 0
06-10-2018 26.4 (14:10) 16.9 (08:20) 21.6 6.67 (18:40) 3.89 (19:20) 0 0 0 0 0
05-10-2018 26 (11:50) 16 (08:20) 21 7.78 (12:50) 4.44 (12:50) 0 0 0 0 0
04-10-2018 26 (15:40) 15.9 (00:00) 20.9 5.83 (13:10) 3.61 (14:40) 0 0 0 0 0
03-10-2018 25.8 (15:40) 17.4 (00:00) 21.6 6.94 (12:00) 3.61 (12:00) 0 0 0 0 0
02-10-2018 27 (11:50) 17.1 (00:00) 22.1 9.72 (15:30) 5.56 (15:30) 0 0 0 0 0
01-10-2018 26.9 (16:30) 18.9 (00:00) 22.9 7.22 (13:10) 3.89 (13:50) 0 0 0 0 0
30-09-2018 26.5 (13:50) 17.9 (00:00) 22.2 -- (--) -- (--) 0 0 0 0 0
29-09-2018 26.3 (15:00) 19.6 (00:00) 22.9 5.28 (14:10) 3.33 (15:20) 0 0 0 0 0
28-09-2018 26.9 (14:30) 20.3 (00:00) 23.6 7.5 (14:40) 4.72 (13:20) 0 0 0 0 0
27-09-2018 29 (11:40) 20.6 (00:00) 24.8 9.72 (13:40) 5.56 (12:10) 0 0 0 0 0
26-09-2018 28.9 (13:50) 22.1 (00:00) 25.5 8.61 (13:30) 5.28 (14:10) 0 0 0 0 0
25-09-2018 29.3 (14:40) 19 (00:00) 24.1 7.5 (12:00) 4.17 (11:50) 0 0 0 0 0
24-09-2018 32.4 (13:10) 18.3 (00:00) 25.4 -- (--) -- (--) 0 0 0 0 0
23-09-2018 30.4 (13:20) 18.3 (05:00) 24.3 5.83 (17:30) 3.33 (14:10) 0 0 0 0 0
22-09-2018 29.1 (16:00) 18.3 (07:20) 23.7 6.11 (13:20) 3.89 (12:20) 0 0 0 0 0

Gráficas

Temp. máximas Temp. mínimas Temp. medias Precipitaciones Rachas de viento máximas Velocidades máximas media en intervalos de 10 minutos

Datos horarios

Fecha y hora oficial Temperatura (ºC) Velocidad del viento (km/h) Dirección del viento Racha (km/h) Dirección de racha Precipitación (mm) Presión (hPa) Tendencia (hPa) Humedad (%)
2018-10-21 23:00:00 17.9 6 Norte 8 Norte 0 -- -- 95
2018-10-21 22:00:00 18.4 6 Norte 8 Norte 0 -- -- 93
2018-10-21 21:00:00 19.3 4 Norte 6 Nordeste 0 -- -- 90
2018-10-21 20:00:00 21 0 Calma 5 Noroeste 0 -- -- 86
2018-10-21 19:00:00 22.9 4 Oeste 17 Sudoeste 0 -- -- 73
2018-10-21 18:00:00 23.3 8 Oeste 23 Oeste 0 -- -- 71
2018-10-21 17:00:00 24.5 10 Oeste 21 Oeste 0 -- -- 66
2018-10-21 16:00:00 23.7 11 Oeste 24 Oeste 0 -- -- 71
2018-10-21 15:00:00 25 10 Oeste 19 Oeste 0 -- -- 68
2018-10-21 14:00:00 25.2 10 Oeste 23 Oeste 0 -- -- 68
2018-10-21 13:00:00 25.1 3 Sudoeste 10 Oeste 0 -- -- 68
2018-10-21 12:00:00 24.3 7 Sudoeste 10 Sur 0 -- -- 67
2018-10-21 11:00:00 23.2 0 Calma 7 Sudeste 0 -- -- 72
2018-10-21 10:00:00 20 0 Calma 8 Noroeste 0 -- -- 88
2018-10-21 09:00:00 17 0 Calma 12 Nordeste 0 -- -- 91
2018-10-21 08:00:00 -- 8 Nordeste 12 Nordeste 0 -- -- --
2018-10-21 07:00:00 17.5 5 Nordeste 10 Norte 0 -- -- 91
2018-10-21 06:00:00 17.6 0 Calma 9 Nordeste 0 -- -- 90
2018-10-21 05:00:00 18.2 4 Sudeste 68 Nordeste 0 -- -- 87
2018-10-21 04:00:00 17.9 5 Nordeste 10 Nordeste 0 -- -- 86
2018-10-21 03:00:00 17.4 4 Nordeste 12 Nordeste 0 -- -- 87
2018-10-21 02:00:00 17.1 6 Nordeste 12 Norte 0 -- -- 88
2018-10-21 01:00:00 16.5 6 Norte 11 Nordeste 0 -- -- 89
2018-10-21 00:00:00 16.9 4 Nordeste 12 Oeste 0 -- -- 89
2018-10-20 23:00:00 17.5 5 Nordeste 14 Norte 0 -- -- 88
2018-10-20 22:00:00 17.9 6 Nordeste 12 Norte 0 -- -- 89
2018-10-20 21:00:00 18.7 8 Nordeste 14 Nordeste 0 -- -- 87
2018-10-20 20:00:00 20.2 4 Noroeste 14 Sur 0 -- -- 82
2018-10-20 19:00:00 23 8 Sudeste 18 Sur 0 -- -- 69
2018-10-20 18:00:00 24.4 5 Sudeste 19 Sudeste 0 -- -- 63
2018-10-20 17:00:00 24.8 6 Sudeste 18 Sudeste 0 -- -- 62
2018-10-20 16:00:00 22.6 0 Calma 13 Nordeste 0 -- -- 79
2018-10-20 15:00:00 18 9 Nordeste 16 Nordeste 0 -- -- 93
2018-10-20 14:00:00 16.5 3 Este 12 Nordeste 1.2 -- -- 93
2018-10-20 13:00:00 16.7 0 Calma 15 Noroeste 1 -- -- 95
2018-10-20 12:00:00 -- 3 Este 14 Nordeste 2.4 -- -- --
2018-10-20 11:00:00 15.9 4 Norte 11 Sudoeste 1.8 -- -- 93
2018-10-20 10:00:00 15.3 6 Nordeste 14 Nordeste 0.2 -- -- 92
2018-10-20 09:00:00 14.8 3 Este 16 Nordeste 0.2 -- -- 88
2018-10-20 08:00:00 15.6 3 Sudoeste 17 Nordeste 0 -- -- 79
2018-10-20 07:00:00 14.4 8 Nordeste 12 Nordeste 0 -- -- 82
2018-10-20 06:00:00 13.6 7 Nordeste 13 Nordeste 0 -- -- 83
2018-10-20 05:00:00 12.8 8 Norte 12 Norte 0 -- -- 88
2018-10-20 04:00:00 13.7 5 Noroeste 13 Nordeste 0 -- -- 83
2018-10-20 03:00:00 14.1 6 Nordeste 17 Nordeste 0 -- -- 84
2018-10-20 02:00:00 14.1 2 Este 14 Nordeste 0 -- -- 85
2018-10-20 01:00:00 14.2 10 Nordeste 13 Nordeste 0 -- -- 87
2018-10-20 00:00:00 14.3 5 Nordeste 12 Nordeste 0 -- -- 88
2018-10-19 23:00:00 14.8 2 Nordeste 11 Nordeste 0 -- -- 87
2018-10-19 22:00:00 15.3 6 Nordeste 14 Nordeste 0 -- -- 85
2018-10-19 21:00:00 15.9 0 Calma 12 Nordeste 0 -- -- 83
2018-10-19 20:00:00 17.6 0 Calma 21 Sudeste 0 -- -- 77
2018-10-19 19:00:00 19.6 12 Sudeste 29 Sudeste 0 -- -- 64
2018-10-19 18:00:00 20.2 14 Sur 29 Sudeste 0 -- -- 70
2018-10-19 17:00:00 21.1 15 Sudeste 28 Sudeste 0 -- -- 61
2018-10-19 16:00:00 21.5 9 Sudeste 21 Sur 0 -- -- 61
2018-10-19 15:00:00 19.9 9 Sur 30 Sur 0 -- -- 66
2018-10-19 14:00:00 19.9 15 Sur 29 Este 0 -- -- 60
2018-10-19 13:00:00 20.9 13 Sudeste 26 Sudeste 0 -- -- 62
2018-10-19 12:00:00 18.3 2 Nordeste 16 Nordeste 0 -- -- 70
2018-10-19 11:00:00 15.2 6 Nordeste 18 Nordeste 0 -- -- 73
2018-10-19 10:00:00 13.8 8 Nordeste 17 Nordeste 0 -- -- 79
2018-10-19 09:00:00 12.2 8 Nordeste 18 Nordeste 0 -- -- 83
2018-10-19 08:00:00 -- 5 Nordeste 16 Nordeste 0 -- -- --
2018-10-19 07:00:00 11.9 8 Nordeste 20 Nordeste 0 -- -- 85
2018-10-19 06:00:00 12.1 11 Nordeste 20 Nordeste 0 -- -- 85
2018-10-19 05:00:00 11.6 10 Nordeste 15 Nordeste 0 -- -- 90
2018-10-19 04:00:00 12 6 Nordeste 13 Nordeste 0 -- -- 89
2018-10-19 03:00:00 11.8 4 Nordeste 12 Nordeste 0 -- -- 93
2018-10-19 02:00:00 11.4 6 Norte 10 Nordeste 0 -- -- 93
2018-10-19 01:00:00 12 9 Nordeste 13 Nordeste 0 -- -- 92
2018-10-19 00:00:00 12.5 9 Nordeste 13 Nordeste 0 -- -- 91
2018-10-18 23:00:00 13 5 Nordeste 16 Nordeste 0 -- -- 91
2018-10-18 22:00:00 13.3 4 Nordeste 14 Nordeste 0 -- -- 91
2018-10-18 21:00:00 13.6 9 Nordeste 15 Nordeste 0 -- -- 90
2018-10-18 20:00:00 14.5 5 Nordeste 10 Nordeste 0 -- -- 85
2018-10-18 19:00:00 15.9 3 Nordeste 9 Nordeste 0 -- -- 80
2018-10-18 18:00:00 16.8 0 Calma 15 Nordeste 0 -- -- 80
2018-10-18 17:00:00 15.7 8 Nordeste 41 Nordeste 0 -- -- 80
2018-10-18 16:00:00 -- 14 Nordeste 41 Nordeste 3 -- -- --
2018-10-18 15:00:00 13.9 14 Nordeste 29 Nordeste 3 -- -- 96
2018-10-18 14:00:00 13.9 3 Nordeste 24 Nordeste 3.8 -- -- 97
2018-10-18 13:00:00 14 5 Nordeste 21 Nordeste 6 -- -- 96
2018-10-18 12:00:00 -- 5 Nordeste 60 Oeste 14 -- -- --
2018-10-18 11:00:00 17.6 0 Calma 15 Nordeste 0.2 -- -- 96
2018-10-18 10:00:00 17 12 Nordeste 15 Nordeste 1.2 -- -- 96
2018-10-18 09:00:00 17.1 7 Nordeste 10 Norte 0.6 -- -- 94
2018-10-18 08:00:00 17 4 Nordeste 10 Nordeste 0 -- -- 93
2018-10-18 07:00:00 16.9 5 Nordeste 13 Norte 0 -- -- 93
2018-10-18 06:00:00 16.7 6 Nordeste 9 Nordeste 0 -- -- 93
2018-10-18 05:00:00 16.8 4 Nordeste 13 Nordeste 0 -- -- 94
2018-10-18 04:00:00 16.8 3 Nordeste 10 Nordeste 0 -- -- 95
2018-10-18 03:00:00 16.7 5 Nordeste 11 Nordeste 0 -- -- 97
2018-10-18 02:00:00 16.6 3 Nordeste 10 Nordeste 0 -- -- 97
2018-10-18 01:00:00 16.8 2 Nordeste 9 Nordeste 0 -- -- 97
2018-10-18 00:00:00 16.9 5 Norte 10 Nordeste 0 -- -- 96
2018-10-17 23:00:00 16.7 3 Nordeste 7 Nordeste 0 -- -- 95
2018-10-17 22:00:00 17.4 3 Nordeste 9 Norte 0 -- -- 93
2018-10-17 21:00:00 18.1 5 Norte 7 Nordeste 0 -- -- 92
2018-10-17 20:00:00 20 3 Norte 16 Sudoeste 0 -- -- 86
2018-10-17 19:00:00 20.9 8 Sudoeste 21 Sudoeste 0 -- -- 83
2018-10-17 18:00:00 21.3 12 Sudoeste 22 Sudoeste 0 -- -- 81
2018-10-17 17:00:00 22 13 Sudoeste 22 Sudoeste 0 -- -- 78
2018-10-17 16:00:00 22.4 11 Sudoeste 20 Oeste 0 -- -- 77
2018-10-17 15:00:00 22.5 10 Sudoeste 27 Oeste 0 -- -- 74
2018-10-17 14:00:00 22.5 12 Sudoeste 22 Sudoeste 0 -- -- 72
2018-10-17 13:00:00 22.5 10 Sudoeste 18 Sudoeste 0 -- -- 71
2018-10-17 12:00:00 23.4 5 Sudoeste 11 Oeste 0 -- -- 67
2018-10-17 11:00:00 22.1 3 Noroeste 8 Noroeste 0 -- -- 64
2018-10-17 10:00:00 18.1 0 Calma 9 Norte 0 -- -- 84
2018-10-17 09:00:00 14.7 4 Nordeste 12 Nordeste 0 -- -- 91
2018-10-17 08:00:00 15.1 8 Nordeste 14 Nordeste 0 -- -- 87
2018-10-17 07:00:00 15.5 3 Nordeste 14 Nordeste 0 -- -- 85
2018-10-17 06:00:00 15.4 9 Nordeste 12 Nordeste 0 -- -- 88
2018-10-17 05:00:00 15.5 3 Nordeste 10 Nordeste 0 -- -- 88
2018-10-17 04:00:00 15.6 4 Nordeste 15 Nordeste 0 -- -- 89
2018-10-17 03:00:00 15.6 7 Nordeste 13 Nordeste 0 -- -- 90
2018-10-17 02:00:00 15.9 9 Nordeste 12 Nordeste 0 -- -- 90
2018-10-17 01:00:00 16.2 7 Nordeste 12 Nordeste 0 -- -- 89
2018-10-17 00:00:00 16.4 5 Nordeste 12 Nordeste 0 -- -- 89
2018-10-16 23:00:00 16.4 8 Nordeste 12 Nordeste 0 -- -- 90
2018-10-16 22:00:00 17.3 7 Nordeste 10 Nordeste 0 -- -- 89
2018-10-16 21:00:00 18.9 0 Calma 6 Norte 0 -- -- 87
2018-10-16 20:00:00 19.9 4 Noroeste 8 Noroeste 0 -- -- 80
2018-10-16 19:00:00 20.8 0 Calma 2 Sudeste 0 -- -- 76
2018-10-16 18:00:00 21 0 Calma 4 Sur 0 -- -- 78
2018-10-16 17:00:00 20.8 0 Calma 13 Sudeste 0 -- -- 78
2018-10-16 16:00:00 21.1 4 Sudeste 10 Sudeste 0 -- -- 76
2018-10-16 15:00:00 20.7 7 Sudoeste 20 Sur 0 -- -- 76
2018-10-16 14:00:00 22 12 Sur 22 Sur 0 -- -- 71
2018-10-16 13:00:00 21.6 12 Sur 21 Sur 0 -- -- 70
2018-10-16 12:00:00 20.9 11 Sur 21 Sudeste 0 -- -- 77
2018-10-16 11:00:00 20.5 5 Sur 11 Sur 0 -- -- 77
2018-10-16 10:00:00 18 2 Sur 5 Sur 0 -- -- 97
2018-10-16 09:00:00 15.4 4 Nordeste 10 Nordeste 0 -- -- 98
2018-10-16 08:00:00 15.6 4 Norte 8 Nordeste 0 -- -- 97
2018-10-16 07:00:00 16 4 Nordeste 6 Norte 0 -- -- 98
2018-10-16 06:00:00 16.1 0 Calma 7 Nordeste 0 -- -- 97
2018-10-16 05:00:00 16.2 0 Calma 13 Nordeste 0 -- -- 97
2018-10-16 04:00:00 15.9 6 Norte 14 Nordeste 0.8 -- -- 98
2018-10-16 03:00:00 15.7 7 Nordeste 17 Nordeste 4.8 -- -- 97
2018-10-16 02:00:00 15.5 3 Nordeste 15 Nordeste 4 -- -- 96
2018-10-16 01:00:00 15.5 8 Nordeste 20 Nordeste 2 -- -- 95
2018-10-16 00:00:00 16.3 5 Nordeste 12 Nordeste 4.6 -- -- 93
2018-10-15 23:00:00 16.9 4 Norte 12 Oeste 1.8 -- -- 91
2018-10-15 22:00:00 17.6 3 Nordeste 10 Oeste 1 -- -- 88
2018-10-15 21:00:00 18.1 4 Noroeste 23 Oeste 0.2 -- -- 82
2018-10-15 20:00:00 19.9 10 Oeste 33 Oeste 0 -- -- 68
2018-10-15 19:00:00 20.2 13 Oeste 37 Sudoeste 0 -- -- 65
2018-10-15 18:00:00 21.1 15 Oeste 40 Oeste 0 -- -- 51
2018-10-15 17:00:00 22.1 18 Oeste 40 Oeste 0 -- -- 43
2018-10-15 16:00:00 21.8 20 Oeste 47 Oeste 0 -- -- 45
2018-10-15 15:00:00 22.9 14 Oeste 34 Noroeste 0 -- -- 37
2018-10-15 14:00:00 21.8 12 Sudoeste 33 Sudoeste 0 -- -- 46
2018-10-15 13:00:00 21.2 15 Oeste 31 Oeste 0 -- -- 51
2018-10-15 12:00:00 20.6 14 Sudoeste 28 Sudoeste 0 -- -- 53
2018-10-15 11:00:00 20.4 7 Sudoeste 24 Norte 0 -- -- 53
2018-10-15 10:00:00 18.3 14 Norte 24 Norte 0 -- -- 53
2018-10-15 09:00:00 16.3 12 Norte 23 Norte 0 -- -- 59
2018-10-15 08:00:00 -- 14 Norte 30 Norte 0 -- -- --
2018-10-15 07:00:00 16.5 16 Norte 38 Noroeste 0 -- -- 60
2018-10-15 06:00:00 16.3 15 Norte 27 Norte 0 -- -- 59
2018-10-15 05:00:00 17 14 Norte 33 Norte 0 -- -- 58
2018-10-15 04:00:00 17 12 Norte 25 Noroeste 0 -- -- 59
2018-10-15 03:00:00 17.1 10 Norte 27 Noroeste 0 -- -- 57
2018-10-15 02:00:00 17.4 11 Norte 24 Norte 0 -- -- 54
2018-10-15 01:00:00 17.6 11 Norte 42 Norte 0 -- -- 55
2018-10-15 00:00:00 18.6 17 Norte 32 Noroeste 0 -- -- 49
2018-10-14 23:00:00 18.9 15 Norte 36 Norte 0 -- -- 48
2018-10-14 22:00:00 18.7 12 Norte 34 Noroeste 0 -- -- 48
2018-10-14 21:00:00 19.1 10 Norte 35 Norte 0 -- -- 51
2018-10-14 20:00:00 19.3 15 Norte 34 Norte 0 -- -- 53
2018-10-14 19:00:00 20.8 19 Norte 37 Nordeste 0 -- -- 47
2018-10-14 18:00:00 22.4 14 Norte 30 Nordeste 0 -- -- 51
2018-10-14 17:00:00 24.2 16 Norte 31 Oeste 0 -- -- 51
2018-10-14 16:00:00 23.8 12 Sudoeste 31 Oeste 0 -- -- 63
2018-10-14 15:00:00 22.4 13 Oeste 32 Oeste 0 -- -- 79
2018-10-14 14:00:00 21.5 16 Sudoeste 37 Sudoeste 0 -- -- 86
2018-10-14 13:00:00 20.3 13 Oeste 54 Oeste 8.2 -- -- 94
2018-10-14 12:00:00 21.4 16 Sur 33 Sur 1.4 -- -- 95
2018-10-14 11:00:00 21.4 0 Calma 10 Nordeste 0.4 -- -- 93
2018-10-14 10:00:00 20.3 0 Calma 10 Nordeste 0.2 -- -- 85
2018-10-14 09:00:00 18.7 3 Nordeste 9 Nordeste 0 -- -- 91
2018-10-14 08:00:00 -- 6 Nordeste 10 Norte 0 -- -- --
2018-10-14 07:00:00 17.8 6 Nordeste 10 Nordeste 0 -- -- 93
2018-10-14 06:00:00 17.7 7 Nordeste 11 Nordeste 0 -- -- 93
2018-10-14 05:00:00 17.9 7 Nordeste 10 Norte 0 -- -- 94
2018-10-14 04:00:00 17.7 6 Nordeste 9 Nordeste 0 -- -- 95
2018-10-14 03:00:00 18.2 4 Nordeste 11 Nordeste 0 -- -- 92
2018-10-14 02:00:00 19.1 8 Nordeste 11 Nordeste 0 -- -- 91
2018-10-14 01:00:00 19.3 5 Norte 9 Nordeste 0 -- -- 93
2018-10-14 00:00:00 20.5 5 Norte 8 Norte 0 -- -- 92
2018-10-13 23:00:00 21.4 3 Norte 4 Norte 0 -- -- 92
2018-10-13 22:00:00 22.5 0 Calma 7 Noroeste 0 -- -- 90
2018-10-13 21:00:00 23 4 Sur 8 Oeste 0 -- -- 88
2018-10-13 20:00:00 23.1 5 Sudoeste 11 Sudoeste 0 -- -- 88
2018-10-13 19:00:00 23.4 6 Sudoeste 14 Sur 0 -- -- 87
2018-10-13 18:00:00 23.7 8 Sur 21 Sur 0 -- -- 85
2018-10-13 17:00:00 25.4 14 Sudoeste 22 Sur 0 -- -- 78
2018-10-13 16:00:00 25.6 14 Sur 24 Sudeste 0 -- -- 75
2018-10-13 15:00:00 26.1 13 Sur 27 Sur 0 -- -- 72
2018-10-13 14:00:00 26 13 Sur 23 Sudoeste 0 -- -- 72
2018-10-13 13:00:00 25.8 13 Sur 21 Sur 0 -- -- 71
2018-10-13 12:00:00 25.8 8 Sur 15 Sur 0 -- -- 71
2018-10-13 11:00:00 24.4 2 Sudoeste 9 Nordeste 0 -- -- 72
2018-10-13 10:00:00 20.8 0 Calma 9 Nordeste 0 -- -- 86
2018-10-13 09:00:00 17 6 Nordeste 8 Nordeste 0 -- -- 95
2018-10-13 08:00:00 -- 3 Nordeste 8 Nordeste 0 -- -- --
2018-10-13 07:00:00 17.9 4 Nordeste 10 Nordeste 0 -- -- 90
2018-10-13 06:00:00 17.9 7 Nordeste 13 Nordeste 0 -- -- 91
2018-10-13 05:00:00 17.6 8 Nordeste 11 Nordeste 0 -- -- 93
2018-10-13 04:00:00 17.4 7 Nordeste 10 Nordeste 0 -- -- 93
2018-10-13 03:00:00 18 5 Norte 11 Nordeste 0 -- -- 91
2018-10-13 02:00:00 18.1 7 Nordeste 10 Norte 0 -- -- 92
2018-10-13 01:00:00 18.1 4 Norte 9 Norte 0 -- -- 91
2018-10-13 00:00:00 18.5 5 Norte 7 Norte 0 -- -- 90
2018-10-12 23:00:00 19 4 Norte 8 Nordeste 0 -- -- 89
2018-10-12 22:00:00 19.6 4 Nordeste 6 Nordeste 0 -- -- 89
2018-10-12 21:00:00 20.6 4 Norte 6 Norte 0 -- -- 88
2018-10-12 20:00:00 22.6 2 Norte 6 Sur 0 -- -- 83
2018-10-12 19:00:00 24.5 4 Noroeste 13 Noroeste 0 -- -- 72
2018-10-12 18:00:00 25.2 6 Sudoeste 21 Sudoeste 0 -- -- 70
2018-10-12 17:00:00 25.3 10 Sudoeste 26 Sudoeste 0 -- -- 70
2018-10-12 16:00:00 25.3 13 Sudoeste 21 Sudoeste 0 -- -- 71
2018-10-12 15:00:00 26 9 Sudoeste 21 Sudoeste 0 -- -- 64
2018-10-12 14:00:00 25.4 8 Sudoeste 19 Sudoeste 0 -- -- 72
2018-10-12 13:00:00 24.9 9 Sudoeste 16 Oeste 0 -- -- 71
2018-10-12 12:00:00 24.7 8 Sudoeste 14 Sudoeste 0 -- -- 74
2018-10-12 11:00:00 24.3 5 Sudoeste 9 Sur 0 -- -- 71
2018-10-12 10:00:00 20.3 0 Calma 9 Nordeste 0 -- -- 90
2018-10-12 09:00:00 16.7 6 Nordeste 10 Nordeste 0 -- -- 95
2018-10-12 08:00:00 -- 3 Nordeste 8 Norte 0 -- -- --
2018-10-12 07:00:00 17 5 Norte 13 Nordeste 0 -- -- 92
2018-10-12 06:00:00 17 6 Norte 8 Norte 0 -- -- 92
2018-10-12 05:00:00 17.5 7 Norte 14 Nordeste 0 -- -- 90
2018-10-12 04:00:00 18.1 7 Norte 13 Nordeste 0 -- -- 89
2018-10-12 03:00:00 18.8 6 Nordeste 13 Nordeste 0 -- -- 88
2018-10-12 02:00:00 18.1 7 Nordeste 11 Nordeste 0 -- -- 94
2018-10-12 01:00:00 18 8 Nordeste 12 Nordeste 0 -- -- 95
2018-10-12 00:00:00 18.4 5 Nordeste 13 Nordeste 0 -- -- 92
2018-10-11 23:00:00 19.1 5 Norte 13 Nordeste 0 -- -- 92
2018-10-11 22:00:00 19.1 11 Nordeste 15 Nordeste 0 -- -- 92
2018-10-11 21:00:00 19.9 2 Norte 9 Nordeste 0 -- -- 91
2018-10-11 20:00:00 21.6 6 Norte 17 Oeste 0 -- -- 85
2018-10-11 19:00:00 22.7 6 Sudoeste 22 Sudoeste 0 -- -- 83
2018-10-11 18:00:00 23.8 9 Sudoeste 18 Sudoeste 0 -- -- 77
2018-10-11 17:00:00 24 9 Sudoeste 19 Sudoeste 0 -- -- 76
2018-10-11 16:00:00 23.6 6 Sudoeste 11 Sudoeste 0 -- -- 79
2018-10-11 15:00:00 22.4 4 Sudoeste 8 Sudoeste 0 -- -- 82
2018-10-11 14:00:00 21.9 0 Calma 14 Sudoeste 0.6 -- -- 92
2018-10-11 13:00:00 22.1 0 Calma 15 Sudoeste 0.2 -- -- 88
2018-10-11 12:00:00 23 5 Oeste 14 Oeste 0.4 -- -- 78
2018-10-11 11:00:00 23.5 0 Calma 7 Nordeste 0 -- -- 73
2018-10-11 10:00:00 20.8 3 Nordeste 8 Nordeste 0 -- -- 81
2018-10-11 09:00:00 19.7 3 Nordeste 11 Nordeste 0 -- -- 82
2018-10-11 08:00:00 -- 3 Nordeste 10 Nordeste 0 -- -- --
2018-10-11 07:00:00 19.3 0 Calma 13 Nordeste 0 -- -- 87
2018-10-11 06:00:00 19.1 7 Nordeste 14 Nordeste 0 -- -- 85
2018-10-11 05:00:00 18.7 3 Nordeste 13 Nordeste 0 -- -- 89
2018-10-11 04:00:00 19 6 Nordeste 11 Nordeste 0 -- -- 89
2018-10-11 03:00:00 19.6 2 Nordeste 9 Nordeste 0 -- -- 89
2018-10-11 02:00:00 19.8 4 Nordeste 9 Nordeste 0 -- -- 92
2018-10-11 01:00:00 19.5 3 Norte 7 Nordeste 0 -- -- 93
2018-10-11 00:00:00 19.4 0 Calma 6 Norte 0 -- -- 93
2018-10-10 23:00:00 19.6 5 Nordeste 9 Norte 0 -- -- 91
2018-10-10 22:00:00 20 6 Nordeste 8 Nordeste 0 -- -- 89
2018-10-10 21:00:00 20.8 3 Norte 6 Sur 0 -- -- 87
2018-10-10 20:00:00 22.6 5 Sur 8 Sudoeste 0 -- -- 82
2018-10-10 19:00:00 23.7 3 Sudeste 13 Sur 0 -- -- 76
2018-10-10 18:00:00 24.1 9 Sur 19 Sudoeste 0 -- -- 75
2018-10-10 17:00:00 24.9 12 Sur 19 Sur 0 -- -- 71
2018-10-10 16:00:00 25.3 13 Sur 24 Sur 0 -- -- 68
2018-10-10 15:00:00 25.7 13 Sur 22 Sur 0 -- -- 66
2018-10-10 14:00:00 25.5 11 Sur 22 Sur 0 -- -- 65
2018-10-10 13:00:00 25.3 13 Sur 23 Sur 0 -- -- 65
2018-10-10 12:00:00 25.2 11 Sur 21 Sudeste 0 -- -- 62
2018-10-10 11:00:00 24.1 4 Sur 11 Sur 0 -- -- 63
2018-10-10 10:00:00 21.6 0 Calma 12 Norte 0 -- -- 76
2018-10-10 09:00:00 19.5 2 Este 13 Nordeste 0 -- -- 83
2018-10-10 08:00:00 -- 6 Nordeste 11 Nordeste 0 -- -- --
2018-10-10 07:00:00 19.1 2 Nordeste 15 Nordeste 0 -- -- 82
2018-10-10 06:00:00 18.5 7 Nordeste 11 Nordeste 0 -- -- 86
2018-10-10 05:00:00 17.8 5 Nordeste 10 Nordeste 0 -- -- 89
2018-10-10 04:00:00 17.8 0 Calma 6 Nordeste 0 -- -- 90
2018-10-10 03:00:00 18.2 4 Norte 6 Nordeste 0 -- -- 90
2018-10-10 02:00:00 18.8 2 Noroeste 9 Nordeste 0 -- -- 86
2018-10-10 01:00:00 19.5 2 Norte 12 Norte 0 -- -- 84
2018-10-10 00:00:00 20.1 5 Norte 10 Sur 0 -- -- 79
2018-10-09 23:00:00 21 4 Sudeste 10 Sur 0 -- -- 74
2018-10-09 22:00:00 20.9 5 Sudeste 15 Sudeste 0 -- -- 79
2018-10-09 21:00:00 20.9 5 Sudeste 11 Sudeste 0 -- -- 78
2018-10-09 20:00:00 21.7 3 Sudeste 17 Sudeste 0 -- -- 78
2018-10-09 19:00:00 22.9 11 Sudeste 23 Sur 0 -- -- 72
2018-10-09 18:00:00 24.3 11 Sur 25 Sudeste 0 -- -- 59
2018-10-09 17:00:00 24.5 14 Sudeste 26 Sudeste 0 -- -- 63
2018-10-09 16:00:00 23.2 7 Sudeste 21 Sur 0.2 -- -- 71
2018-10-09 15:00:00 23.1 10 Sudeste 27 Sudeste 0.2 -- -- 72
2018-10-09 14:00:00 24.8 11 Sudeste 29 Sudeste 0 -- -- 59
2018-10-09 13:00:00 24 14 Sudeste 31 Sudeste 0 -- -- 62
2018-10-09 12:00:00 24.9 11 Sur 21 Sudeste 0 -- -- 58
2018-10-09 11:00:00 23.3 5 Sudeste 18 Sudeste 0 -- -- 63
2018-10-09 10:00:00 21.5 3 Sudeste 13 Nordeste 0 -- -- 73
2018-10-09 09:00:00 19.7 0 Calma 5 Sudeste 0 -- -- 90
2018-10-09 08:00:00 -- 0 Calma 4 Nordeste 0 -- -- --
2018-10-09 07:00:00 19.7 0 Calma 9 Nordeste 0 -- -- 87
2018-10-09 06:00:00 20.2 2 Norte 16 Sudeste 0 -- -- 85
2018-10-09 05:00:00 20.6 5 Sudeste 55 Sur 0 -- -- 80
2018-10-09 04:00:00 -- 0 Calma 10 Sudeste 0 -- -- --
2018-10-09 03:00:00 20.9 3 Nordeste 17 Sudeste 0 -- -- 84
2018-10-09 02:00:00 20.8 2 Sudeste 15 Sudeste 0 -- -- 84
2018-10-09 01:00:00 20.5 0 Calma 4 Norte 0 -- -- 90
2018-10-09 00:00:00 20.6 0 Calma 5 Nordeste 0 -- -- 91
2018-10-08 23:00:00 20.6 2 Norte 6 Nordeste 0 -- -- 91
2018-10-08 22:00:00 20.1 4 Norte 5 Norte 0 -- -- 90
2018-10-08 21:00:00 20.5 3 Norte 4 Norte 0 -- -- 87
2018-10-08 20:00:00 22.7 2 Sur 9 Sur 0 -- -- 79
2018-10-08 19:00:00 23.5 6 Sudoeste 15 Sudoeste 0 -- -- 73
2018-10-08 18:00:00 24.4 9 Sur 19 Sur 0 -- -- 69
2018-10-08 17:00:00 24.7 10 Sur 19 Sur 0 -- -- 69
2018-10-08 16:00:00 25 12 Sur 24 Sur 0 -- -- 67
2018-10-08 15:00:00 25.8 15 Sur 26 Sur 0 -- -- 63
2018-10-08 14:00:00 25.7 17 Sur 26 Sur 0 -- -- 62
2018-10-08 13:00:00 25.9 14 Sur 24 Sur 0 -- -- 61
2018-10-08 12:00:00 25.4 10 Sur 19 Sudeste 0 -- -- 62
2018-10-08 11:00:00 24.8 0 Calma 9 Sudeste 0 -- -- 70
2018-10-08 10:00:00 21.6 0 Calma 11 Nordeste 0 -- -- 83
2018-10-08 09:00:00 18.7 4 Nordeste 10 Nordeste 0 -- -- 88
2018-10-08 08:00:00 18.7 8 Nordeste 12 Nordeste 0 -- -- 93
2018-10-08 07:00:00 18.2 3 Nordeste 9 Norte 0 -- -- 95
2018-10-08 06:00:00 18.5 3 Nordeste 8 Nordeste 0 -- -- 93
2018-10-08 05:00:00 19.5 2 Sudeste 7 Sudeste 0 -- -- 89
2018-10-08 04:00:00 21 2 Nordeste 8 Sur 0 -- -- 86
2018-10-08 03:00:00 22.2 2 Sudeste 20 Sudeste 0 -- -- 83
2018-10-08 02:00:00 22.7 10 Sudeste 19 Sudeste 0 -- -- 82
2018-10-08 01:00:00 22.9 3 Sudeste 24 Sudeste 0 -- -- 74
2018-10-08 00:00:00 22 3 Sudeste 10 Sur 0 -- -- 60
2018-10-07 23:00:00 23.8 2 Nordeste 16 Norte 0 -- -- 55
2018-10-07 22:00:00 27.5 12 Norte 22 Norte 0 -- -- 32
2018-10-07 21:00:00 22.2 3 Noroeste 9 Norte 0 -- -- 77
2018-10-07 20:00:00 25 4 Norte 24 Oeste 0 -- -- 67
2018-10-07 19:00:00 27.5 13 Oeste 24 Oeste 0 -- -- 51
2018-10-07 18:00:00 28.7 12 Oeste 24 Sur 0 -- -- 43
2018-10-07 17:00:00 28 9 Sudoeste 26 Noroeste 0 -- -- 45
2018-10-07 16:00:00 28.7 12 Sudoeste 28 Oeste 0 -- -- 40
2018-10-07 15:00:00 27.4 13 Sudoeste 31 Sudoeste 0 -- -- 56
2018-10-07 14:00:00 26 14 Sudoeste 24 Sur 0 -- -- 71
2018-10-07 13:00:00 26.3 4 Sudoeste 13 Sudoeste 0 -- -- 62
2018-10-07 12:00:00 25.5 7 Sudoeste 15 Sudoeste 0 -- -- 73
2018-10-07 11:00:00 24.8 5 Sudoeste 14 Sudoeste 0 -- -- 74
2018-10-07 10:00:00 19.8 4 Nordeste 10 Nordeste 0 -- -- 87
2018-10-07 09:00:00 16 6 Norte 12 Nordeste 0 -- -- 91
2018-10-07 08:00:00 15.6 6 Norte 10 Nordeste 0 -- -- 90
2018-10-07 07:00:00 15.9 7 Norte 14 Nordeste 0 -- -- 91
2018-10-07 06:00:00 16.5 9 Norte 15 Nordeste 0 -- -- 91
2018-10-07 05:00:00 16.7 6 Nordeste 12 Nordeste 0 -- -- 93
2018-10-07 04:00:00 16.7 6 Nordeste 9 Norte 0 -- -- 93
2018-10-07 03:00:00 17.1 8 Nordeste 12 Norte 0 -- -- 93
2018-10-07 02:00:00 17.5 3 Norte 8 Norte 0 -- -- 92
2018-10-07 01:00:00 18 4 Norte 8 Nordeste 0 -- -- 92
2018-10-07 00:00:00 18.5 4 Norte 6 Nordeste 0 -- -- 90
2018-10-06 23:00:00 19.1 5 Norte 9 Nordeste 0 -- -- 90
2018-10-06 22:00:00 19.9 4 Norte 8 Norte 0 -- -- 89
2018-10-06 21:00:00 21.2 4 Norte 15 Noroeste 0 -- -- 85
2018-10-06 20:00:00 23 7 Oeste 23 Sudoeste 0 -- -- 79
2018-10-06 19:00:00 23.7 11 Sudoeste 24 Sudoeste 0 -- -- 75
2018-10-06 18:00:00 24.3 12 Sudoeste 19 Sudoeste 0 -- -- 75
2018-10-06 17:00:00 25.1 9 Sudoeste 17 Sudoeste 0 -- -- 72
2018-10-06 16:00:00 25.9 10 Sudoeste 15 Sudoeste 0 -- -- 66
2018-10-06 15:00:00 26.2 8 Sur 19 Sur 0 -- -- 65
2018-10-06 14:00:00 26.3 8 Sudoeste 15 Sudoeste 0 -- -- 65
2018-10-06 13:00:00 25.8 7 Sudoeste 15 Sudoeste 0 -- -- 66
2018-10-06 12:00:00 25.6 8 Sudoeste 15 Sudoeste 0 -- -- 65
2018-10-06 11:00:00 25.2 2 Nordeste 9 Nordeste 0 -- -- 66
2018-10-06 10:00:00 20.6 3 Nordeste 13 Nordeste 0 -- -- 77
2018-10-06 09:00:00 17.4 9 Nordeste 14 Nordeste 0 -- -- 86
2018-10-06 08:00:00 17.1 9 Nordeste 14 Nordeste 0 -- -- 86
2018-10-06 07:00:00 17.6 4 Nordeste 11 Nordeste 0 -- -- 85
2018-10-06 06:00:00 17.8 4 Nordeste 14 Nordeste 0 -- -- 87
2018-10-06 05:00:00 17.7 9 Nordeste 14 Nordeste 0 -- -- 88
2018-10-06 04:00:00 18.1 9 Nordeste 13 Nordeste 0 -- -- 88
2018-10-06 03:00:00 18.6 3 Nordeste 11 Nordeste 0 -- -- 87
2018-10-06 02:00:00 18.7 5 Nordeste 12 Nordeste 0 -- -- 86
2018-10-06 01:00:00 18.7 9 Nordeste 13 Nordeste 0 -- -- 89
2018-10-06 00:00:00 19.1 5 Nordeste 12 Nordeste 0 -- -- 88
2018-10-05 23:00:00 19.6 9 Nordeste 13 Nordeste 0 -- -- 90
2018-10-05 22:00:00 19.9 7 Nordeste 9 Nordeste 0 -- -- 88
2018-10-05 21:00:00 20.5 4 Norte 5 Norte 0 -- -- 86
2018-10-05 20:00:00 23.1 3 Sur 15 Sur 0 -- -- 77
2018-10-05 19:00:00 24.1 9 Sur 21 Sudeste 0 -- -- 74
2018-10-05 18:00:00 25.3 10 Sur 26 Sudeste 0 -- -- 66
2018-10-05 17:00:00 25.5 15 Sur 26 Sur 0 -- -- 70
2018-10-05 16:00:00 25.8 15 Sur 25 Sur 0 -- -- 66
2018-10-05 15:00:00 25.9 14 Sur 26 Sur 0 -- -- 64
2018-10-05 14:00:00 25.6 15 Sur 26 Sur 0 -- -- 68
2018-10-05 13:00:00 25.5 16 Sur 28 Sur 0 -- -- 64
2018-10-05 12:00:00 25.9 13 Sur 21 Sur 0 -- -- 62
2018-10-05 11:00:00 24.6 2 Nordeste 10 Nordeste 0 -- -- 53
2018-10-05 10:00:00 20.4 4 Nordeste 17 Nordeste 0 -- -- 64
2018-10-05 09:00:00 16.9 8 Nordeste 16 Nordeste 0 -- -- 69
2018-10-05 08:00:00 16.4 3 Nordeste 15 Nordeste 0 -- -- 72
2018-10-05 07:00:00 16.5 10 Nordeste 17 Nordeste 0 -- -- 73
2018-10-05 06:00:00 17.1 5 Nordeste 12 Nordeste 0 -- -- 71
2018-10-05 05:00:00 17.3 6 Nordeste 15 Nordeste 0 -- -- 74
2018-10-05 04:00:00 17.4 5 Nordeste 13 Nordeste 0 -- -- 75
2018-10-05 03:00:00 17.6 11 Nordeste 15 Nordeste 0 -- -- 75
2018-10-05 02:00:00 17.8 6 Nordeste 13 Nordeste 0 -- -- 76
2018-10-05 01:00:00 17.6 6 Nordeste 14 Nordeste 0 -- -- 80
2018-10-05 00:00:00 17.2 8 Nordeste 10 Nordeste 0 -- -- 88
2018-10-04 23:00:00 18.1 4 Nordeste 12 Nordeste 0 -- -- 87
2018-10-04 22:00:00 19 7 Nordeste 12 Nordeste 0 -- -- 87
2018-10-04 21:00:00 20 6 Norte 8 Norte 0 -- -- 85
2018-10-04 20:00:00 22.7 0 Calma 8 Sur 0 -- -- 77
2018-10-04 19:00:00 24.2 5 Sur 11 Sur 0 -- -- 70
2018-10-04 18:00:00 24.8 8 Sur 14 Sudoeste 0 -- -- 66
2018-10-04 17:00:00 25.5 9 Sur 16 Sur 0 -- -- 65
2018-10-04 16:00:00 25.5 9 Sudoeste 17 Sur 0 -- -- 66
2018-10-04 15:00:00 25.6 10 Sur 19 Sudoeste 0 -- -- 68
2018-10-04 14:00:00 25.4 11 Sudoeste 21 Sur 0 -- -- 66
2018-10-04 13:00:00 25.1 10 Sur 19 Sur 0 -- -- 68
2018-10-04 12:00:00 24.9 9 Sudoeste 15 Sudoeste 0 -- -- 68
2018-10-04 11:00:00 24.6 2 Sur 11 Sudeste 0 -- -- 66
2018-10-04 10:00:00 20.6 2 Nordeste 13 Nordeste 0 -- -- 70
2018-10-04 09:00:00 16.8 5 Nordeste 13 Nordeste 0 -- -- 83
2018-10-04 08:00:00 16.1 6 Nordeste 13 Nordeste 0 -- -- 87
2018-10-04 07:00:00 16 6 Nordeste 12 Nordeste 0 -- -- 88
2018-10-04 06:00:00 17.2 7 Nordeste 12 Nordeste 0 -- -- 85
2018-10-04 05:00:00 17.6 8 Nordeste 13 Nordeste 0 -- -- 87
2018-10-04 04:00:00 17.7 8 Nordeste 11 Nordeste 0 -- -- 87
2018-10-04 03:00:00 18 7 Nordeste 11 Nordeste 0 -- -- 88
2018-10-04 02:00:00 18.9 2 Nordeste 10 Nordeste 0 -- -- 88
2018-10-04 01:00:00 19.1 9 Nordeste 13 Nordeste 0 -- -- 88
2018-10-04 00:00:00 18.8 9 Nordeste 13 Nordeste 0 -- -- 90
2018-10-03 23:00:00 19 3 Norte 10 Nordeste 0 -- -- 89
2018-10-03 22:00:00 19.6 6 Nordeste 9 Norte 0 -- -- 88
2018-10-03 21:00:00 20.5 6 Norte 8 Norte 0 -- -- 86
2018-10-03 20:00:00 22.8 0 Calma 8 Sudoeste 0 -- -- 78
2018-10-03 19:00:00 23.9 6 Sur 12 Sur 0 -- -- 73
2018-10-03 18:00:00 24.7 7 Sur 15 Sudoeste 0 -- -- 66
2018-10-03 17:00:00 25 9 Sudoeste 18 Sur 0 -- -- 62
2018-10-03 16:00:00 25.6 12 Sur 19 Sur 0 -- -- 64
2018-10-03 15:00:00 25.6 11 Sur 22 Sudeste 0 -- -- 64
2018-10-03 14:00:00 25.6 13 Sur 20 Sudeste 0 -- -- 66
2018-10-03 13:00:00 25.4 12 Sur 22 Sur 0 -- -- 63
2018-10-03 12:00:00 24.9 13 Sur 25 Sudeste 0 -- -- 69
2018-10-03 11:00:00 23.8 2 Sur 7 Sudeste 0 -- -- 73
2018-10-03 10:00:00 21.1 3 Nordeste 15 Nordeste 0 -- -- 78
2018-10-03 09:00:00 18 8 Nordeste 13 Nordeste 0 -- -- 87
2018-10-03 08:00:00 17.6 6 Nordeste 15 Nordeste 0 -- -- 89
2018-10-03 07:00:00 17.5 6 Nordeste 9 Nordeste 0 -- -- 91
2018-10-03 06:00:00 17.9 4 Nordeste 11 Nordeste 0 -- -- 92
2018-10-03 05:00:00 17.8 8 Nordeste 11 Nordeste 0 -- -- 92
2018-10-03 04:00:00 18.5 2 Nordeste 10 Nordeste 0 -- -- 90
2018-10-03 03:00:00 19 6 Nordeste 11 Nordeste 0 -- -- 91
2018-10-03 02:00:00 19 6 Nordeste 10 Nordeste 0 -- -- 92
2018-10-03 01:00:00 19.7 3 Nordeste 9 Nordeste 0 -- -- 89
2018-10-03 00:00:00 20.4 4 Norte 9 Norte 0 -- -- 88
2018-10-02 23:00:00 20.4 4 Norte 6 Norte 0 -- -- 88
2018-10-02 22:00:00 21.4 2 Norte 10 Sudeste 0 -- -- 84
2018-10-02 21:00:00 23 5 Sudeste 12 Sudeste 0 -- -- 77
2018-10-02 20:00:00 23.6 6 Sur 20 Sur 0 -- -- 75
2018-10-02 19:00:00 24.7 11 Sur 24 Sur 0 -- -- 70
2018-10-02 18:00:00 25.6 15 Sur 27 Sudeste 0 -- -- 65
2018-10-02 17:00:00 26.1 17 Sur 31 Sudeste 0 -- -- 60
2018-10-02 16:00:00 26.3 20 Sur 35 Sur 0 -- -- 65
2018-10-02 15:00:00 26.4 19 Sur 31 Sur 0 -- -- 70
2018-10-02 14:00:00 26.8 17 Sur 28 Sudeste 0 -- -- 65
2018-10-02 13:00:00 26.7 14 Sur 24 Sur 0 -- -- 64
2018-10-02 12:00:00 27 12 Sur 21 Sudeste 0 -- -- 64
2018-10-02 11:00:00 25.4 4 Nordeste 13 Nordeste 0 -- -- 60
2018-10-02 10:00:00 20.8 4 Nordeste 11 Este 0 -- -- 65
2018-10-02 09:00:00 17.6 6 Nordeste 14 Nordeste 0 -- -- 74
2018-10-02 08:00:00 17.6 8 Nordeste 18 Nordeste 0 -- -- 73
2018-10-02 07:00:00 17.4 9 Nordeste 13 Nordeste 0 -- -- 77
2018-10-02 06:00:00 18.2 4 Nordeste 17 Nordeste 0 -- -- 75
2018-10-02 05:00:00 18.1 7 Nordeste 12 Nordeste 0 -- -- 80
2018-10-02 04:00:00 18.3 8 Nordeste 12 Nordeste 0 -- -- 83
2018-10-02 03:00:00 18.7 7 Nordeste 13 Nordeste 0 -- -- 83
2018-10-02 02:00:00 19.4 12 Nordeste 16 Nordeste 0 -- -- 82
2018-10-02 01:00:00 19 4 Nordeste 8 Norte 0 -- -- 86
2018-10-02 00:00:00 19.1 3 Nordeste 10 Norte 0 -- -- 90
2018-10-01 23:00:00 19.7 0 Calma 11 Nordeste 0 -- -- 86
2018-10-01 22:00:00 20.9 6 Norte 12 Nordeste 0 -- -- 88
2018-10-01 21:00:00 22.3 3 Nordeste 7 Norte 0 -- -- 89
2018-10-01 20:00:00 23.7 2 Sudeste 8 Noroeste 0 -- -- 86
2018-10-01 19:00:00 24.2 5 Nordeste 9 Nordeste 0 -- -- 85
2018-10-01 18:00:00 24.7 4 Oeste 13 Sudoeste 0 -- -- 81
2018-10-01 17:00:00 26.4 5 Sudoeste 17 Sudoeste 0 -- -- 73
2018-10-01 16:00:00 26.5 7 Sudoeste 15 Sur 0 -- -- 72
2018-10-01 15:00:00 26.3 9 Sudoeste 22 Sudoeste 0 -- -- 74
2018-10-01 14:00:00 25.7 11 Sudoeste 26 Sudoeste 0 -- -- 74
2018-10-01 13:00:00 26.3 11 Sudoeste 23 Sudoeste 0 -- -- 74
2018-10-01 12:00:00 25.4 11 Sudoeste 25 Oeste 0 -- -- 79
2018-10-01 11:00:00 24.8 10 Oeste 22 Sudoeste 0 -- -- 82
2018-10-01 10:00:00 23.3 8 Sudoeste 18 Noroeste 0 -- -- 85
2018-10-01 09:00:00 20.1 4 Norte 13 Oeste 0 -- -- 89
2018-10-01 08:00:00 20.2 5 Oeste 13 Oeste 0 -- -- 95
2018-10-01 07:00:00 19.3 5 Nordeste 13 Norte 0 -- -- 92
2018-10-01 06:00:00 18.9 8 Nordeste 12 Nordeste 0 -- -- 95
2018-10-01 05:00:00 19.3 5 Norte 6 Nordeste 0 -- -- 94
2018-10-01 04:00:00 19.9 5 Norte 10 Nordeste 0 -- -- 94
2018-10-01 03:00:00 20.1 6 Norte 9 Norte 0 -- -- 93
2018-10-01 02:00:00 20.9 3 Norte 5 Norte 0 -- -- 92
2018-10-01 01:00:00 21.8 3 Norte 10 Oeste 0 -- -- 88
2018-10-01 00:00:00 22.6 5 Noroeste 15 Oeste 0 -- -- 84
2018-09-30 23:00:00 22.6 6 Oeste 16 Oeste 0 -- -- 84
2018-09-30 22:00:00 22.7 7 Oeste 16 Sudoeste 0 -- -- 86
2018-09-30 21:00:00 23 5 Oeste 14 Sudoeste 0 -- -- 83
2018-09-30 20:00:00 23.1 7 Sudoeste 15 Sudoeste 0 -- -- 82
2018-09-30 19:00:00 23.2 9 Sudoeste 17 Sudoeste 0 -- -- 81
2018-09-30 18:00:00 24.1 8 Sudoeste 18 Sudoeste 0 -- -- 78
2018-09-30 17:00:00 25.1 10 Sudoeste 18 Sur 0 -- -- 75
2018-09-30 16:00:00 25.6 13 Sudoeste 22 Sur 0 -- -- 74
2018-09-30 15:00:00 25.9 8 Sudoeste 19 Sur 0 -- -- 70
2018-09-30 14:00:00 26 10 Sudoeste 17 Sur 0 -- -- 69
2018-09-30 13:00:00 25.9 9 Sudoeste 18 Sudoeste 0 -- -- 68
2018-09-30 12:00:00 25.6 8 Sudoeste 14 Sudoeste 0 -- -- 66
2018-09-30 11:00:00 25.1 3 Este 7 Sudoeste 0 -- -- 70
2018-09-30 10:00:00 21.9 2 Nordeste 10 Nordeste 0 -- -- 86
2018-09-30 09:00:00 18.8 7 Nordeste 13 Nordeste 0 -- -- 93
2018-09-30 08:00:00 18.4 8 Nordeste 12 Nordeste 0 -- -- 93
2018-09-30 07:00:00 18.1 8 Nordeste 11 Nordeste 0 -- -- 95
2018-09-30 06:00:00 18 7 Nordeste 10 Nordeste 0 -- -- 94
2018-09-30 05:00:00 18.4 7 Nordeste 10 Nordeste 0 -- -- 94
2018-09-30 04:00:00 18.8 5 Nordeste 10 Nordeste 0 -- -- 93
2018-09-30 03:00:00 18.9 7 Nordeste 10 Nordeste 0 -- -- 94
2018-09-30 02:00:00 18.7 8 Norte 10 Nordeste 0 -- -- 92
2018-09-30 01:00:00 19.2 -- -- -- -- 0 -- -- 92
2018-09-30 00:00:00 19.6 6 Nordeste 10 Nordeste 0 -- -- 91
2018-09-29 23:00:00 19.8 6 Nordeste 8 Nordeste 0 -- -- 90
2018-09-29 22:00:00 20.3 5 Norte 6 Norte 0 -- -- 89
2018-09-29 21:00:00 21.6 3 Norte 6 Sur 0 -- -- 85
2018-09-29 20:00:00 23.3 3 Sudoeste 9 Sudoeste 0 -- -- 77
2018-09-29 19:00:00 24.3 6 Sudoeste 15 Sur 0 -- -- 73
2018-09-29 18:00:00 25.1 9 Sur 17 Sudoeste 0 -- -- 71
2018-09-29 17:00:00 26 7 Sudoeste 17 Sudoeste 0 -- -- 68
2018-09-29 16:00:00 26 9 Sudoeste 17 Sur 0 -- -- 69
2018-09-29 15:00:00 26.3 10 Sudoeste 19 Sur 0 -- -- 67
2018-09-29 14:00:00 25.6 10 Sudoeste 19 Sudoeste 0 -- -- 69
2018-09-29 13:00:00 25.3 10 Sudoeste 16 Sudoeste 0 -- -- 72
2018-09-29 12:00:00 24.2 5 Sudoeste 11 Sudoeste 0 -- -- 76
2018-09-29 11:00:00 22.9 2 Oeste 6 Noroeste 0 -- -- 82
2018-09-29 10:00:00 21.9 0 Calma 5 Nordeste 0 -- -- 91
2018-09-29 09:00:00 21.1 3 Norte 6 Nordeste 0 -- -- 93
2018-09-29 08:00:00 20.7 0 Calma 5 Nordeste 0 -- -- 93
2018-09-29 07:00:00 20.1 2 Nordeste 4 Nordeste 0 -- -- 93
2018-09-29 06:00:00 20.4 3 Norte 4 Norte 0 -- -- 91
2018-09-29 05:00:00 21.1 0 Calma 3 Norte 0 -- -- 89
2018-09-29 04:00:00 22.4 0 Calma 4 Sur 0 -- -- 87
2018-09-29 03:00:00 22.2 0 Calma 4 Sur 0 -- -- 85
2018-09-29 02:00:00 22.2 0 Calma 4 Norte 0 -- -- 82
2018-09-29 01:00:00 22.4 2 Nordeste 4 Norte 0 -- -- 81
2018-09-29 00:00:00 22.8 2 Norte 5 Norte 0 -- -- 77
2018-09-28 23:00:00 22.9 4 Norte 6 Norte 0 -- -- 77
2018-09-28 22:00:00 23.2 2 Nordeste 5 Norte 0 -- -- 76
2018-09-28 21:00:00 23.6 3 Sur 10 Sudeste 0 -- -- 72
2018-09-28 20:00:00 23.8 5 Sur 14 Sur 0 -- -- 71
2018-09-28 19:00:00 24.2 6 Sur 16 Sudoeste 0 -- -- 71
2018-09-28 18:00:00 24.8 8 Sur 21 Sur 0 -- -- 73
2018-09-28 17:00:00 26.1 10 Sudoeste 21 Sur 0 -- -- 68
2018-09-28 16:00:00 26.3 13 Sur 22 Sur 0 -- -- 66
2018-09-28 15:00:00 25.7 13 Sur 27 Sur 0 -- -- 67
2018-09-28 14:00:00 26.7 14 Sur 26 Sudeste 0 -- -- 64
2018-09-28 13:00:00 26 13 Sur 21 Sudeste 0 -- -- 61
2018-09-28 12:00:00 25.1 13 Sur 20 Sur 0 -- -- 65
2018-09-28 11:00:00 24.2 3 Oeste 6 Sur 0 -- -- 70
2018-09-28 10:00:00 22.4 2 Nordeste 11 Nordeste 0 -- -- 77
2018-09-28 09:00:00 21.7 4 Nordeste 13 Nordeste 0 -- -- 77
2018-09-28 08:00:00 21.6 0 Calma 5 Nordeste 0 -- -- 78
2018-09-28 07:00:00 21.6 0 Calma 8 Nordeste 0 -- -- 80
2018-09-28 06:00:00 21.6 0 Calma 6 Nordeste 0 -- -- 81
2018-09-28 05:00:00 21.3 4 Nordeste 8 Nordeste 0 -- -- 86
2018-09-28 04:00:00 20.9 4 Nordeste 8 Nordeste 0 -- -- 89
2018-09-28 03:00:00 20.8 0 Calma 9 Nordeste 0 -- -- 89
2018-09-28 02:00:00 20.3 5 Norte 8 Norte 0 -- -- 92
2018-09-28 01:00:00 20.3 2 Nordeste 6 Nordeste 0 -- -- 91
2018-09-28 00:00:00 20.6 0 Calma 5 Nordeste 0 -- -- 89
2018-09-27 23:00:00 21.1 0 Calma 5 Sudoeste 0 -- -- 88
2018-09-27 22:00:00 22.1 0 Calma 6 Sudeste 0 -- -- 84
2018-09-27 21:00:00 24 3 Sudeste 21 Sudeste 0 -- -- 73
2018-09-27 20:00:00 25 13 Sudeste 30 Sudeste 0 -- -- 70
2018-09-27 19:00:00 26.5 16 Sudeste 29 Sudeste 0 -- -- 61
2018-09-27 18:00:00 27.6 15 Sudeste 31 Sudeste 0 -- -- 55
2018-09-27 17:00:00 28.2 18 Sur 32 Sudeste 0 -- -- 55
2018-09-27 16:00:00 28.5 15 Sudeste 34 Sudeste 0 -- -- 54
2018-09-27 15:00:00 27.4 13 Sudeste 31 Sudeste 0 -- -- 58
2018-09-27 14:00:00 27.2 12 Sudeste 35 Sudeste 0 -- -- 60
2018-09-27 13:00:00 28 15 Sudeste 34 Sudeste 0 -- -- 57
2018-09-27 12:00:00 29 13 Sudeste 28 Sudeste 0 -- -- 53
2018-09-27 11:00:00 27.6 3 Noroeste 6 Nordeste 0 -- -- 60
2018-09-27 10:00:00 24.1 2 Nordeste 9 Nordeste 0 -- -- 81
2018-09-27 09:00:00 20.8 6 Nordeste 9 Nordeste 0 -- -- 90
2018-09-27 08:00:00 21.1 5 Norte 8 Norte 0 -- -- 86
2018-09-27 07:00:00 21.5 4 Nordeste 18 Nordeste 0 -- -- 87
2018-09-27 06:00:00 20.7 4 Nordeste 9 Nordeste 0 -- -- 92
2018-09-27 05:00:00 21.3 5 Norte 8 Nordeste 0 -- -- 90
2018-09-27 04:00:00 22.2 0 Calma 12 Nordeste 0 -- -- 89
2018-09-27 03:00:00 21.8 2 Noroeste 9 Norte 0 -- -- 92
2018-09-27 02:00:00 21.5 7 Norte 9 Norte 0 -- -- 92
2018-09-27 01:00:00 22.4 6 Nordeste 11 Nordeste 0 -- -- 90
2018-09-27 00:00:00 22.1 8 Norte 11 Nordeste 0 -- -- 91